createdAt,value
2018-07-08T00:01:13.155Z,66.44
2018-07-08T00:03:41.230Z,65.79
2018-07-08T00:06:09.271Z,66.54
2018-07-08T00:08:37.336Z,67.24
2018-07-08T00:11:05.428Z,66.36
2018-07-08T00:13:33.467Z,66.90
2018-07-08T00:16:01.528Z,67.05
2018-07-08T00:18:30.571Z,67.08
2018-07-08T00:20:58.680Z,68.08
2018-07-08T00:23:26.715Z,67.36
2018-07-08T00:25:54.866Z,67.14
2018-07-08T00:28:23.792Z,67.01
2018-07-08T00:30:51.835Z,68.22
2018-07-08T00:33:19.908Z,68.74
2018-07-08T00:35:47.943Z,68.27
2018-07-08T00:38:16.012Z,68.64
2018-07-08T00:40:44.084Z,68.56
2018-07-08T00:43:12.160Z,69.04
2018-07-08T00:45:40.232Z,68.60
2018-07-08T00:48:08.315Z,70.25
2018-07-08T00:50:36.627Z,69.19
2018-07-08T00:53:04.760Z,69.84
2018-07-08T00:55:32.836Z,69.68
2018-07-08T00:58:00.907Z,69.40
2018-07-08T01:00:31.580Z,69.87
2018-07-08T01:03:00.406Z,71.04
2018-07-08T01:05:28.993Z,70.41
2018-07-08T01:07:57.412Z,71.10
2018-07-08T01:10:25.484Z,70.06
2018-07-08T01:12:53.561Z,71.11
2018-07-08T01:15:21.627Z,71.62
2018-07-08T01:17:50.761Z,70.93
2018-07-08T01:20:18.900Z,72.68
2018-07-08T01:22:46.979Z,71.70
2018-07-08T01:25:16.128Z,73.00
2018-07-08T01:27:44.256Z,71.72
2018-07-08T01:30:13.544Z,72.28
2018-07-08T01:32:41.609Z,72.04
2018-07-08T01:35:09.681Z,72.51
2018-07-08T01:37:37.760Z,71.77
2018-07-08T01:40:06.500Z,72.05
2018-07-08T01:42:34.620Z,72.95
2018-07-08T01:45:02.716Z,72.49
2018-07-08T01:47:30.864Z,72.76
2018-07-08T01:49:58.968Z,73.13
2018-07-08T01:52:27.143Z,73.68
2018-07-08T01:54:55.816Z,73.75
2018-07-08T01:57:24.716Z,73.37
2018-07-08T01:59:52.987Z,73.44
2018-07-08T02:02:21.722Z,73.34
2018-07-08T02:04:50.708Z,74.36
2018-07-08T02:07:18.821Z,73.31
2018-07-08T02:09:47.400Z,74.36
2018-07-08T02:12:15.873Z,74.17
2018-07-08T02:14:44.452Z,74.68
2018-07-08T02:17:12.561Z,74.33
2018-07-08T02:19:40.837Z,75.26
2018-07-08T02:22:09.256Z,74.41
2018-07-08T02:24:37.350Z,74.84
2018-07-08T02:27:06.016Z,74.64
2018-07-08T02:29:34.658Z,75.19
2018-07-08T02:32:02.704Z,74.68
2018-07-08T02:34:30.994Z,75.62
2018-07-08T02:36:59.329Z,75.77
2018-07-08T02:39:27.905Z,76.50
2018-07-08T02:41:56.225Z,76.38
2018-07-08T02:44:24.360Z,75.29
2018-07-08T02:46:53.233Z,75.33
2018-07-08T02:49:21.699Z,76.10
2018-07-08T02:51:49.804Z,75.96
2018-07-08T02:54:18.132Z,75.79
2018-07-08T02:56:46.830Z,76.06
2018-07-08T02:59:14.940Z,75.92
2018-07-08T03:01:43.016Z,75.16
2018-07-08T03:04:11.092Z,75.90
2018-07-08T03:06:39.180Z,75.93
2018-07-08T03:09:08.372Z,76.11
2018-07-08T03:11:36.484Z,76.18
2018-07-08T03:14:04.708Z,76.66
2018-07-08T03:16:32.775Z,75.85
2018-07-08T03:19:01.028Z,76.34
2018-07-08T03:21:29.089Z,76.38
2018-07-08T03:23:57.211Z,76.64
2018-07-08T03:26:25.719Z,76.01
2018-07-08T03:28:54.033Z,76.69
2018-07-08T03:31:22.193Z,76.54
2018-07-08T03:33:56.944Z,76.38
2018-07-08T03:36:25.089Z,76.15
2018-07-08T03:38:53.297Z,76.33
2018-07-08T03:41:21.477Z,76.75
2018-07-08T03:43:49.764Z,76.62
2018-07-08T03:46:18.085Z,76.26
2018-07-08T03:48:46.376Z,76.24
2018-07-08T03:51:14.433Z,76.02
2018-07-08T03:53:42.532Z,75.92
2018-07-08T03:56:10.620Z,76.16
2018-07-08T03:58:40.690Z,76.09
2018-07-08T04:01:08.759Z,76.21
2018-07-08T04:03:37.388Z,75.78
2018-07-08T04:06:05.492Z,75.76
2018-07-08T04:08:33.560Z,75.26
2018-07-08T04:11:01.604Z,75.61
2018-07-08T04:13:29.686Z,75.80
2018-07-08T04:15:57.715Z,75.35
2018-07-08T04:18:25.775Z,75.51
2018-07-08T04:20:53.836Z,75.53
2018-07-08T04:23:21.892Z,74.95
2018-07-08T04:25:49.992Z,75.00
2018-07-08T04:28:18.294Z,74.35
2018-07-08T04:30:46.516Z,73.50
2018-07-08T04:33:14.701Z,71.38
2018-07-08T04:35:42.800Z,68.79
2018-07-08T04:38:10.986Z,64.58
2018-07-08T04:40:39.034Z,62.98
2018-07-08T04:43:07.103Z,58.56
2018-07-08T04:45:35.172Z,59.29
2018-07-08T04:48:03.252Z,55.21
2018-07-08T04:50:31.330Z,55.56
2018-07-08T04:52:59.413Z,51.73
2018-07-08T04:55:27.509Z,51.96
2018-07-08T04:57:55.580Z,47.92
2018-07-08T05:00:23.628Z,47.19
2018-07-08T05:02:51.688Z,47.31
2018-07-08T05:05:20.060Z,46.15
2018-07-08T05:07:48.121Z,44.84
2018-07-08T05:10:16.155Z,43.77
2018-07-08T05:12:44.487Z,43.92
2018-07-08T05:15:12.543Z,45.48
2018-07-08T05:17:40.728Z,44.09
2018-07-08T05:20:08.803Z,45.33
2018-07-08T05:22:36.848Z,43.97
2018-07-08T05:25:05.008Z,43.31
2018-07-08T05:27:33.103Z,43.88
2018-07-08T05:30:01.135Z,42.47
2018-07-08T05:32:29.231Z,44.90
2018-07-08T05:34:57.290Z,43.85
2018-07-08T05:37:25.327Z,43.43
2018-07-08T05:39:53.367Z,41.29
2018-07-08T05:42:21.653Z,42.50
2018-07-08T05:44:50.042Z,41.05
2018-07-08T05:47:18.360Z,42.18
2018-07-08T05:49:46.708Z,39.01
2018-07-08T05:52:20.487Z,38.49
2018-07-08T05:54:49.046Z,37.85
2018-07-08T05:57:17.458Z,40.51
2018-07-08T05:59:45.692Z,39.12
2018-07-08T06:02:14.308Z,40.49
2018-07-08T06:04:42.632Z,40.67
2018-07-08T06:07:10.615Z,40.21
2018-07-08T06:09:38.651Z,39.21
2018-07-08T06:12:08.108Z,40.71
2018-07-08T06:14:36.157Z,40.61
2018-07-08T06:17:04.212Z,39.77
2018-07-08T06:19:32.290Z,38.97
2018-07-08T06:22:00.470Z,39.82
2018-07-08T06:24:28.706Z,40.66
2018-07-08T06:26:56.772Z,40.75
2018-07-08T06:29:24.792Z,40.62
2018-07-08T06:31:52.864Z,37.88
2018-07-08T06:34:20.908Z,38.48
2018-07-08T06:36:48.978Z,37.04
2018-07-08T06:39:17.117Z,37.73
2018-07-08T06:41:45.141Z,38.11
2018-07-08T06:44:13.192Z,38.38
2018-07-08T06:46:41.261Z,37.97
2018-07-08T06:49:09.357Z,37.85
2018-07-08T06:51:37.423Z,38.53
2018-07-08T06:54:05.544Z,40.55
2018-07-08T06:56:33.597Z,44.03
2018-07-08T06:59:01.661Z,45.02
2018-07-08T07:01:29.851Z,45.24
2018-07-08T07:03:57.918Z,44.75
2018-07-08T07:06:25.987Z,43.88
2018-07-08T07:08:54.100Z,42.05
2018-07-08T07:11:23.023Z,39.30
2018-07-08T07:13:51.084Z,39.68
2018-07-08T07:16:19.137Z,38.86
2018-07-08T07:18:47.205Z,38.08
2018-07-08T07:21:15.419Z,38.41
2018-07-08T07:23:43.455Z,40.67
2018-07-08T07:26:12.751Z,40.92
2018-07-08T07:28:40.852Z,42.43
2018-07-08T07:31:08.872Z,42.36
2018-07-08T07:33:36.944Z,40.38
2018-07-08T07:36:05.185Z,38.29
2018-07-08T07:38:33.361Z,38.12
2018-07-08T07:41:01.451Z,37.83
2018-07-08T07:43:29.507Z,38.21
2018-07-08T07:45:57.919Z,39.36
2018-07-08T07:48:25.975Z,38.44
2018-07-08T07:50:54.055Z,36.93
2018-07-08T07:53:22.101Z,36.18
2018-07-08T07:55:50.158Z,34.68
2018-07-08T07:58:18.368Z,34.97
2018-07-08T08:00:46.419Z,35.50
2018-07-08T08:03:14.495Z,35.48
2018-07-08T08:05:42.568Z,34.45
2018-07-08T08:08:10.659Z,35.57
2018-07-08T08:10:39.394Z,34.92
2018-07-08T08:13:07.807Z,35.98
2018-07-08T08:15:35.849Z,36.65
2018-07-08T08:18:03.924Z,34.88
2018-07-08T08:20:31.972Z,35.46
2018-07-08T08:23:01.648Z,34.81
2018-07-08T08:25:29.688Z,35.42
2018-07-08T08:27:57.796Z,36.57
2018-07-08T08:30:26.795Z,36.22
2018-07-08T08:32:55.660Z,35.76
2018-07-08T08:35:24.502Z,36.19
2018-07-08T08:37:54.533Z,36.95
2018-07-08T08:40:25.876Z,37.35
2018-07-08T08:42:54.371Z,37.48
2018-07-08T08:45:23.720Z,37.24
2018-07-08T08:47:51.774Z,36.80
2018-07-08T08:50:19.864Z,35.43
2018-07-08T08:52:47.945Z,34.46
2018-07-08T08:55:16.029Z,35.11
2018-07-08T08:57:44.858Z,35.57
2018-07-08T09:00:16.843Z,38.23
2018-07-08T09:02:47.443Z,37.66
2018-07-08T09:05:15.721Z,38.57
2018-07-08T09:07:44.159Z,37.50
2018-07-08T09:10:12.312Z,37.77
2018-07-08T09:12:44.089Z,38.04
2018-07-08T09:15:13.595Z,37.20
2018-07-08T09:17:42.834Z,38.12
2018-07-08T09:20:10.971Z,38.96
2018-07-08T09:22:39.050Z,39.39
2018-07-08T09:25:07.557Z,37.61
2018-07-08T09:27:35.838Z,37.24
2018-07-08T09:30:04.983Z,36.94
2018-07-08T09:32:34.022Z,36.58
2018-07-08T09:35:02.199Z,35.12
2018-07-08T09:37:30.808Z,34.74
2018-07-08T09:39:58.947Z,35.51
2018-07-08T09:42:27.492Z,35.31
2018-07-08T09:44:55.801Z,34.19
2018-07-08T09:47:25.597Z,33.52
2018-07-08T09:49:53.891Z,34.03
2018-07-08T09:52:22.021Z,35.39
2018-07-08T12:27:40.627Z,41.94
2018-07-08T12:30:08.727Z,41.05
2018-07-08T12:32:36.836Z,41.68
2018-07-08T12:35:04.908Z,40.68
2018-07-08T12:37:33.000Z,40.96
2018-07-08T12:40:01.045Z,41.15
2018-07-08T12:42:29.129Z,39.98
2018-07-08T12:44:57.773Z,39.05
2018-07-08T12:47:26.111Z,39.09
2018-07-08T12:49:54.938Z,38.35
2018-07-08T12:52:24.771Z,38.72
2018-07-08T12:54:53.499Z,38.79
2018-07-08T12:57:22.791Z,38.46
2018-07-08T12:59:51.564Z,38.17
2018-07-08T13:02:19.592Z,38.73
2018-07-08T13:04:47.716Z,38.38
2018-07-08T13:07:16.331Z,38.23
2018-07-08T13:09:44.805Z,38.78
2018-07-08T13:12:12.843Z,37.62
2018-07-08T13:14:40.868Z,37.75
2018-07-08T13:17:08.960Z,37.17
2018-07-08T13:19:37.357Z,36.92
2018-07-08T13:22:05.411Z,37.47
2018-07-08T13:24:33.460Z,36.26
2018-07-08T13:27:01.520Z,35.93
2018-07-08T13:29:30.396Z,36.12
2018-07-08T13:31:58.518Z,36.23
2018-07-08T13:34:27.441Z,35.05
2018-07-08T13:36:55.483Z,35.90
2018-07-08T13:39:23.705Z,36.10
2018-07-08T13:41:51.814Z,35.88
2018-07-08T13:44:19.863Z,35.92
2018-07-08T13:46:48.147Z,35.74
2018-07-08T13:49:16.255Z,34.86
2018-07-08T13:51:44.295Z,35.62
2018-07-08T13:54:12.928Z,35.53
2018-07-08T13:56:41.073Z,36.27
2018-07-08T13:59:09.116Z,36.88
2018-07-08T14:01:37.200Z,36.17
2018-07-08T14:04:05.654Z,35.00
2018-07-08T14:06:33.765Z,35.79
2018-07-08T14:09:01.862Z,35.09
2018-07-08T14:11:30.055Z,34.37
2018-07-08T14:13:58.098Z,35.06
2018-07-08T14:16:26.142Z,35.69
2018-07-08T14:18:54.192Z,35.37
2018-07-08T14:21:22.220Z,35.92
2018-07-08T14:23:50.235Z,35.67
2018-07-08T14:26:18.287Z,35.81
2018-07-08T14:28:46.340Z,34.83
2018-07-08T14:31:14.433Z,35.25
2018-07-08T14:33:42.437Z,34.22
2018-07-08T14:36:10.477Z,34.30
2018-07-08T14:38:38.815Z,34.29
2018-07-08T14:41:06.844Z,34.50
2018-07-08T14:43:34.900Z,34.11
2018-07-08T14:46:02.982Z,33.84
2018-07-08T14:48:31.015Z,34.96
2018-07-08T14:50:59.043Z,34.62
2018-07-08T14:53:27.092Z,34.60
2018-07-08T14:55:55.135Z,34.60
2018-07-08T14:58:23.784Z,34.35
2018-07-08T15:00:52.059Z,34.23
2018-07-08T15:03:20.498Z,33.92
2018-07-08T15:05:48.872Z,32.77
2018-07-08T15:08:16.956Z,33.88
2018-07-08T15:10:45.027Z,34.20
2018-07-08T15:13:13.428Z,32.89
2018-07-08T15:15:41.482Z,33.57
2018-07-08T15:18:09.591Z,33.81
2018-07-08T15:20:37.666Z,34.14
2018-07-08T15:23:05.712Z,33.93
2018-07-08T15:25:34.032Z,34.53
2018-07-08T15:28:02.060Z,34.73
2018-07-08T15:30:30.216Z,34.45
2018-07-08T15:32:58.372Z,34.14
2018-07-08T15:35:26.721Z,33.92
2018-07-08T15:37:54.928Z,34.19
2018-07-08T15:40:23.091Z,33.30
2018-07-08T15:42:51.381Z,34.18
2018-07-08T15:45:19.781Z,33.77
2018-07-08T15:47:48.248Z,32.16
2018-07-08T15:50:16.288Z,33.10
2018-07-08T15:52:44.320Z,33.02
2018-07-08T15:55:13.039Z,33.21
2018-07-08T15:57:41.082Z,32.99
2018-07-08T16:00:09.162Z,32.95
2018-07-08T16:02:37.275Z,32.40
2018-07-08T16:05:05.333Z,32.66
2018-07-08T16:07:33.443Z,33.26
2018-07-08T16:10:01.553Z,32.96
2018-07-08T16:12:29.595Z,32.64
2018-07-08T16:14:57.678Z,32.45
2018-07-08T16:17:25.730Z,32.26
2018-07-08T16:19:54.050Z,32.82
2018-07-08T16:22:22.123Z,33.15
2018-07-08T16:24:50.619Z,33.29
2018-07-08T16:27:18.676Z,32.97
2018-07-08T16:29:46.753Z,32.99
2018-07-08T16:32:14.815Z,31.93
2018-07-08T16:34:43.506Z,32.75
2018-07-08T16:37:11.546Z,31.81
2018-07-08T16:39:40.055Z,32.14
2018-07-08T16:42:08.256Z,32.21
2018-07-08T16:44:36.843Z,31.78
2018-07-08T16:47:04.946Z,32.32
2018-07-08T16:49:33.069Z,32.31
2018-07-08T16:52:01.195Z,32.33
2018-07-08T16:54:29.250Z,32.40
2018-07-08T16:56:57.967Z,32.61
2018-07-08T16:59:26.018Z,32.33
2018-07-08T17:01:54.106Z,32.69
2018-07-08T17:04:23.111Z,32.77
2018-07-08T17:06:51.179Z,32.86
2018-07-08T17:09:19.800Z,32.41
2018-07-08T17:11:47.899Z,33.11
2018-07-08T17:14:15.968Z,33.09
2018-07-08T17:16:44.172Z,32.69
2018-07-08T17:19:12.253Z,32.40
2018-07-08T17:21:40.479Z,32.60
2018-07-08T17:24:08.547Z,33.39
2018-07-08T17:26:37.021Z,33.63
2018-07-08T17:29:05.118Z,33.13
2018-07-08T17:31:33.179Z,33.86
2018-07-08T17:34:01.231Z,34.73
2018-07-08T17:36:29.315Z,34.26
2018-07-08T17:38:57.361Z,34.78
2018-07-08T17:41:25.434Z,35.04
2018-07-08T17:43:53.588Z,34.72
2018-07-08T17:46:22.449Z,35.02
2018-07-08T17:48:50.640Z,35.30
2018-07-08T17:51:18.669Z,36.32
2018-07-08T17:53:46.748Z,36.32
2018-07-08T17:56:15.292Z,36.06
2018-07-08T17:58:43.543Z,35.97
2018-07-08T18:01:11.600Z,36.29
2018-07-08T18:03:39.640Z,36.76
2018-07-08T18:06:07.923Z,36.58
2018-07-08T18:08:36.011Z,36.36
2018-07-08T18:11:04.039Z,37.06
2018-07-08T18:13:32.095Z,37.09
2018-07-08T18:16:00.160Z,37.15
2018-07-08T18:18:28.343Z,37.50
2018-07-08T18:20:56.441Z,37.40
2018-07-08T18:23:25.022Z,37.47
2018-07-08T18:25:53.838Z,37.17
2018-07-08T18:28:21.948Z,37.47
2018-07-08T18:30:51.058Z,37.42
2018-07-08T18:33:19.232Z,37.18
2018-07-08T18:35:47.415Z,38.18
2018-07-08T18:38:15.668Z,38.03
2018-07-08T18:40:43.840Z,38.10
2018-07-08T18:43:11.955Z,38.37
2018-07-08T18:45:40.029Z,38.25
2018-07-08T18:48:08.101Z,38.09
2018-07-08T18:50:36.192Z,38.19
2018-07-08T18:53:04.909Z,39.10
2018-07-08T18:55:33.248Z,39.33
2018-07-08T18:58:01.319Z,39.16
2018-07-08T19:00:30.296Z,39.36
2018-07-08T19:02:58.452Z,39.28
2018-07-08T19:05:26.635Z,40.01
2018-07-08T19:07:55.832Z,39.93
2018-07-08T19:10:24.784Z,40.25
2018-07-08T19:12:53.538Z,40.42
2018-07-08T19:15:21.588Z,40.49
2018-07-08T19:17:49.682Z,40.55
2018-07-08T19:20:17.979Z,40.99
2018-07-08T19:22:47.857Z,40.61
2018-07-08T19:25:16.300Z,41.07
2018-07-08T19:27:44.659Z,41.32
2018-07-08T19:30:12.776Z,41.67
2018-07-08T19:32:40.865Z,41.30
2018-07-08T19:35:09.840Z,42.14
2018-07-08T19:37:37.910Z,41.72
2018-07-08T19:40:05.987Z,41.54
2018-07-08T19:42:34.117Z,42.01
2018-07-08T19:45:02.492Z,42.55
2018-07-08T19:47:30.688Z,42.63
2018-07-08T19:49:58.751Z,42.32
2018-07-08T19:52:27.578Z,42.25
2018-07-08T19:55:02.693Z,42.29
2018-07-08T19:57:31.784Z,42.83
2018-07-08T19:59:59.835Z,42.82
2018-07-08T20:02:29.475Z,43.25
2018-07-08T20:04:57.816Z,43.79
2018-07-08T20:07:25.928Z,43.73
2018-07-08T20:09:54.045Z,44.06
2018-07-08T20:12:22.098Z,44.40
2018-07-08T20:14:50.308Z,44.06
2018-07-08T20:17:18.703Z,44.39
2018-07-08T20:19:47.855Z,44.48
2018-07-08T20:22:16.446Z,44.22
2018-07-08T20:24:44.865Z,45.09
2018-07-08T20:27:13.147Z,44.44
2018-07-08T20:29:41.288Z,44.70
2018-07-08T20:32:10.363Z,45.03
2018-07-08T20:34:38.803Z,44.59
2018-07-08T20:37:07.143Z,44.65
2018-07-08T20:39:35.209Z,45.59
2018-07-08T20:42:04.164Z,44.88
2018-07-08T20:44:32.263Z,45.04
2018-07-08T20:47:00.570Z,45.53
2018-07-08T20:49:28.773Z,45.42
2018-07-08T20:51:58.030Z,45.83
2018-07-08T20:54:26.323Z,45.93
2018-07-08T20:56:54.528Z,45.62
2018-07-08T20:59:22.799Z,47.22
2018-07-08T21:01:51.174Z,48.07
2018-07-08T21:04:19.851Z,48.46
2018-07-08T21:06:48.305Z,48.75
2018-07-08T21:09:16.804Z,50.28
2018-07-08T21:11:44.929Z,50.53
2018-07-08T21:14:13.441Z,51.48
2018-07-08T21:16:41.543Z,52.31
2018-07-08T21:19:09.632Z,52.08
2018-07-08T21:21:38.077Z,52.63
2018-07-08T21:24:06.421Z,52.13
2018-07-08T21:26:34.604Z,53.71
2018-07-08T21:29:03.860Z,54.86
2018-07-08T21:31:32.322Z,53.63
2018-07-08T21:34:00.417Z,54.50
2018-07-08T21:36:28.804Z,54.48
2018-07-08T21:38:56.871Z,55.72
2018-07-08T21:41:24.954Z,55.76
2018-07-08T21:43:53.081Z,56.50
2018-07-08T21:46:21.167Z,56.47
2018-07-08T21:48:49.237Z,57.38
2018-07-08T21:51:17.435Z,58.00
2018-07-08T21:53:45.521Z,57.30
2018-07-08T21:56:14.226Z,57.20
2018-07-08T21:58:42.295Z,58.06
2018-07-08T22:01:20.519Z,57.99
2018-07-08T22:03:48.913Z,58.30
2018-07-08T22:06:17.777Z,58.57
2018-07-08T22:08:46.034Z,58.45
2018-07-08T22:11:14.122Z,58.05
2018-07-08T22:13:42.953Z,57.53
2018-07-08T22:16:11.072Z,59.34
2018-07-08T22:18:39.319Z,58.78
2018-07-08T22:21:08.325Z,59.39
2018-07-08T22:23:36.679Z,58.49
2018-07-08T22:26:04.894Z,59.77
2018-07-08T22:28:33.823Z,58.77
2018-07-08T22:31:02.236Z,58.99
2018-07-08T22:33:31.396Z,59.35
2018-07-08T22:35:59.636Z,60.21
2018-07-08T22:38:27.930Z,60.43
2018-07-08T22:40:58.929Z,60.01
2018-07-08T22:43:27.702Z,59.57
2018-07-08T22:45:56.464Z,59.64
2018-07-08T22:48:24.668Z,59.64
2018-07-08T22:50:53.087Z,59.38
2018-07-08T22:53:21.715Z,59.37
2018-07-08T22:55:50.089Z,59.97
2018-07-08T22:58:18.593Z,59.86
2018-07-08T23:00:58.106Z,59.33
2018-07-08T23:03:48.055Z,59.93
2018-07-08T23:06:17.109Z,60.70
2018-07-08T23:08:45.446Z,60.21
2018-07-08T23:11:14.094Z,60.09
2018-07-08T23:13:42.385Z,61.12
2018-07-08T23:16:10.639Z,60.84
2018-07-08T23:18:38.733Z,61.52
2018-07-08T23:21:06.973Z,61.97
2018-07-08T23:23:35.105Z,62.18
2018-07-08T23:26:03.288Z,61.54
2018-07-08T23:28:32.338Z,62.22
2018-07-08T23:31:00.388Z,62.55
2018-07-08T23:33:28.655Z,62.19
2018-07-08T23:35:56.988Z,62.57
2018-07-08T23:38:25.155Z,62.44
2018-07-08T23:40:53.511Z,61.89
2018-07-08T23:43:21.877Z,61.99
2018-07-08T23:45:50.095Z,61.11
2018-07-08T23:48:18.305Z,62.03
2018-07-08T23:50:46.491Z,63.42
2018-07-08T23:53:14.920Z,62.94
2018-07-08T23:55:42.988Z,63.62
2018-07-08T23:58:11.036Z,63.81
